Time;durP1;ratioP1;P1;durP2;ratioP2;P2;SDS_P1;SDS_P2;PMS_P1;PMS_P2;Temp;Humidity;BMP_temperature;BMP_pressure;BME280_temperature;BME280_humidity;BME280_pressure;Samples;Min_cycle;Max_cycle;Signal;HPM_P1;HPM_P2
2021/12/22 00:01:09;;;;;;;28.50;20.67;;;;;;;0.90;74.89;97278.44;5085145;28;20211;-71
2021/12/22 00:03:36;;;;;;;26.30;19.43;;;;;;;0.93;74.98;97275.69;5085149;28;20206;-71
2021/12/22 00:06:03;;;;;;;26.20;19.70;;;;;;;0.91;75.96;97277.53;5092186;28;20210;-72
2021/12/22 00:08:29;;;;;;;29.20;20.50;;;;;;;0.95;75.33;97276.47;5079227;28;20531;-71
2021/12/22 00:10:56;;;;;;;28.07;20.30;;;;;;;0.88;74.11;97275.06;5077966;28;20208;-68
2021/12/22 00:13:23;;;;;;;25.67;19.07;;;;;;;0.94;75.01;97281.75;5077751;28;20209;-69
2021/12/22 00:15:50;;;;;;;27.13;19.87;;;;;;;0.92;75.39;97280.97;5080019;28;20210;-70
2021/12/22 00:18:16;;;;;;;28.77;20.77;;;;;;;0.94;74.42;97277.38;5087865;28;20200;-72
2021/12/22 00:20:43;;;;;;;26.77;19.90;;;;;;;0.89;75.51;97292.34;5087266;28;20218;-71
2021/12/22 00:23:10;;;;;;;28.53;20.67;;;;;;;0.87;74.49;97289.00;5077492;28;20207;-70
2021/12/22 00:25:36;;;;;;;26.73;19.27;;;;;;;0.95;74.34;97286.91;5077206;28;20212;-71
2021/12/22 00:28:03;;;;;;;29.00;20.67;;;;;;;0.87;74.51;97289.00;5082471;28;20256;-71
2021/12/22 00:30:31;;;;;;;28.53;21.00;;;;;;;0.91;74.57;97289.69;5077801;28;20206;-71
2021/12/22 00:33:03;;;;;;;26.93;20.23;;;;;;;0.83;74.86;97290.03;5076640;28;20207;-72
2021/12/22 00:35:39;;;;;;;29.93;21.20;;;;;;;0.90;75.04;97291.44;5077346;28;20248;-71
2021/12/22 00:38:05;;;;;;;27.83;19.00;;;;;;;0.92;74.92;97281.78;5084732;28;20196;-69
2021/12/22 00:40:32;;;;;;;28.57;20.20;;;;;;;0.86;74.19;97282.09;5077285;28;20221;-71
2021/12/22 00:42:58;;;;;;;29.10;19.80;;;;;;;0.83;73.77;97283.97;5077183;28;20208;-71
2021/12/22 00:45:27;;;;;;;29.90;21.50;;;;;;;0.83;73.62;97287.44;5077085;28;20210;-72
2021/12/22 00:47:56;;;;;;;30.27;21.27;;;;;;;0.79;73.57;97280.66;5076971;28;20235;-70
2021/12/22 00:50:22;;;;;;;29.00;21.13;;;;;;;0.80;74.64;97279.75;5076893;28;20633;-71
2021/12/22 00:52:49;;;;;;;25.47;19.17;;;;;;;0.82;74.05;97285.72;5079141;28;20205;-70
2021/12/22 00:55:18;;;;;;;28.57;20.27;;;;;;;0.79;75.06;97279.81;5077284;28;20211;-71
2021/12/22 00:57:45;;;;;;;27.67;20.40;;;;;;;0.81;75.24;97278.84;5077180;28;20203;-70
2021/12/22 01:00:12;;;;;;;27.83;19.83;;;;;;;0.90;74.97;97281.03;5077411;28;20211;-71
2021/12/22 01:02:39;;;;;;;29.67;21.30;;;;;;;0.87;74.64;97278.56;5080113;28;20218;-70
2021/12/22 01:05:07;;;;;;;27.03;20.53;;;;;;;0.89;74.77;97283.69;5081519;28;20204;-71
2021/12/22 01:07:34;;;;;;;28.47;20.60;;;;;;;0.87;74.47;97293.34;5095297;28;20225;-70
2021/12/22 01:10:00;;;;;;;29.63;20.90;;;;;;;0.92;73.91;97287.00;5087971;28;20202;-71
2021/12/22 01:12:27;;;;;;;30.47;20.77;;;;;;;0.89;73.25;97287.16;5088308;28;20208;-71
2021/12/22 01:14:53;;;;;;;34.97;20.80;;;;;;;0.93;75.06;97288.69;5098616;28;20206;-71
2021/12/22 01:17:20;;;;;;;27.33;20.47;;;;;;;0.88;74.14;97284.63;5082226;28;20297;-70
2021/12/22 01:19:53;;;;;;;29.93;20.80;;;;;;;0.88;74.75;97279.41;5085775;28;20214;-71
2021/12/22 01:22:29;;;;;;;30.07;20.00;;;;;;;0.98;74.27;97286.75;5078479;28;20212;-69
2021/12/22 01:25:03;;;;;;;28.00;20.13;;;;;;;0.96;74.40;97287.72;5096395;28;20705;-72
2021/12/22 01:27:34;;;;;;;26.80;20.27;;;;;;;1.08;73.93;97294.97;5085065;28;20544;-71
2021/12/22 01:30:01;;;;;;;27.87;21.13;;;;;;;1.17;72.87;97288.53;5075029;28;20591;-72
2021/12/22 01:32:27;;;;;;;25.93;19.53;;;;;;;1.23;72.95;97293.44;5075797;28;20293;-69
2021/12/22 01:34:54;;;;;;;29.13;20.83;;;;;;;1.17;72.84;97284.13;5075798;28;20207;-70
2021/12/22 01:37:22;;;;;;;26.50;19.90;;;;;;;1.10;73.24;97290.53;5075850;28;20202;-72
2021/12/22 01:39:48;;;;;;;27.43;19.93;;;;;;;1.04;74.30;97300.41;5075735;28;20220;-71
2021/12/22 01:42:15;;;;;;;28.07;20.67;;;;;;;0.94;73.75;97307.78;5081280;28;20208;-71
2021/12/22 01:45:00;;;;;;;27.83;20.07;;;;;;;1.10;73.58;97300.13;5082949;28;20211;-70
2021/12/22 01:50:12;;;;;;;26.93;20.30;;;;;;;1.26;73.46;97295.91;5094333;28;20238;-72
2021/12/22 01:52:40;;;;;;;28.97;21.80;;;;;;;1.22;72.96;97289.16;5091006;28;20212;-71
2021/12/22 01:55:14;;;;;;;28.13;20.23;;;;;;;1.45;71.74;97286.34;5075468;28;20211;-70
2021/12/22 01:57:46;;;;;;;29.83;20.00;;;;;;;1.33;72.16;97285.13;5075495;28;20204;-71
2021/12/22 02:00:13;;;;;;;26.10;20.03;;;;;;;1.36;71.51;97298.00;5081645;28;20309;-72
2021/12/22 02:02:39;;;;;;;27.93;20.17;;;;;;;1.32;72.42;97295.63;5095389;28;20211;-70
2021/12/22 02:05:06;;;;;;;29.50;20.00;;;;;;;1.06;73.50;97295.97;5076036;28;20212;-71
2021/12/22 02:07:33;;;;;;;29.60;20.50;;;;;;;0.99;73.41;97296.22;5074960;28;20246;-70
2021/12/22 02:10:11;;;;;;;26.40;19.03;;;;;;;1.11;73.67;97287.03;5075466;28;20210;-70
2021/12/22 02:12:44;;;;;;;27.23;20.50;;;;;;;0.92;73.79;97291.41;5075403;28;20575;-71
2021/12/22 02:15:11;;;;;;;28.43;20.93;;;;;;;0.86;73.94;97292.50;5075090;28;20235;-70
2021/12/22 02:17:39;;;;;;;26.47;19.47;;;;;;;0.97;74.62;97295.47;5085878;28;20208;-72
2021/12/22 02:20:09;;;;;;;25.27;18.47;;;;;;;1.12;74.36;97290.47;5075323;28;20206;-73
2021/12/22 02:22:36;;;;;;;27.17;19.30;;;;;;;1.10;72.55;97295.75;5079120;28;20231;-70
2021/12/22 02:25:11;;;;;;;26.33;18.07;;;;;;;1.13;73.09;97289.56;5084616;28;20214;-71
2021/12/22 02:27:43;;;;;;;24.07;18.07;;;;;;;0.96;74.26;97290.31;5086140;28;20214;-72
2021/12/22 02:30:16;;;;;;;28.90;19.93;;;;;;;0.99;74.30;97293.63;5094937;28;20228;-72
2021/12/22 02:35:40;;;;;;;26.40;19.53;;;;;;;1.04;73.05;97284.78;5079328;28;20522;-71
2021/12/22 02:38:13;;;;;;;26.70;20.00;;;;;;;1.08;72.97;97289.78;5075147;28;20289;-71
2021/12/22 02:40:42;;;;;;;28.00;20.20;;;;;;;0.77;74.75;97287.72;5077472;28;20211;-71
2021/12/22 02:43:09;;;;;;;26.10;19.37;;;;;;;0.79;74.38;97283.28;5079073;28;20542;-72
2021/12/22 02:45:36;;;;;;;26.40;19.87;;;;;;;0.84;75.01;97289.13;5078939;28;20511;-71
2021/12/22 02:48:04;;;;;;;26.70;19.17;;;;;;;0.90;74.50;97293.19;5079691;28;20227;-71
2021/12/22 02:50:32;;;;;;;28.37;20.37;;;;;;;0.65;74.83;97295.19;5096445;28;20304;-72
2021/12/22 02:53:06;;;;;;;30.03;20.57;;;;;;;0.66;75.05;97283.88;5089440;28;20210;-70
2021/12/22 02:55:44;;;;;;;26.83;19.87;;;;;;;0.75;75.01;97284.31;5078589;28;20707;-73
2021/12/22 02:58:14;;;;;;;25.07;19.57;;;;;;;0.81;75.04;97286.66;5078543;28;20198;-72
2021/12/22 03:01:02;;;;;;;31.03;20.60;;;;;;;0.80;73.37;97286.72;5078595;28;20210;-71
2021/12/22 03:03:44;;;;;;;30.00;21.17;;;;;;;0.70;72.31;97291.50;5085936;28;20497;-71
2021/12/22 03:06:15;;;;;;;28.27;20.23;;;;;;;0.56;73.28;97286.06;5095572;28;20229;-71
2021/12/22 03:08:41;;;;;;;27.27;19.13;;;;;;;0.54;74.67;97285.25;5088637;28;20661;-71
2021/12/22 03:11:08;;;;;;;28.60;19.30;;;;;;;0.57;75.61;97287.72;5099106;28;20236;-72
2021/12/22 03:13:35;;;;;;;29.33;19.97;;;;;;;0.56;75.89;97293.84;5099034;28;20211;-71
2021/12/22 03:16:01;;;;;;;30.60;20.97;;;;;;;0.55;75.14;97307.78;5099259;28;20210;-71
2021/12/22 03:18:31;;;;;;;30.87;21.83;;;;;;;0.51;74.14;97306.19;5088906;28;20213;-72
2021/12/22 03:21:04;;;;;;;30.90;21.87;;;;;;;0.48;74.51;97307.19;5082986;28;20194;-72
2021/12/22 03:23:32;;;;;;;30.10;21.27;;;;;;;0.52;74.80;97301.84;5093688;28;20210;-71
2021/12/22 03:25:59;;;;;;;28.90;20.83;;;;;;;0.41;73.31;97310.13;5087483;28;20219;-71
2021/12/22 03:28:25;;;;;;;29.40;21.17;;;;;;;0.44;74.52;97304.78;5090855;28;20227;-71
2021/12/22 03:30:53;;;;;;;31.13;20.73;;;;;;;0.44;75.19;97305.63;5094591;28;20224;-71
2021/12/22 03:33:19;;;;;;;32.27;22.10;;;;;;;0.37;74.22;97309.41;5109229;28;20217;-71
2021/12/22 03:35:46;;;;;;;27.97;21.27;;;;;;;0.40;74.28;97311.03;5096723;28;20218;-71
2021/12/22 03:38:14;;;;;;;30.60;21.37;;;;;;;0.48;74.76;97306.34;5096679;28;20204;-72
2021/12/22 03:40:42;;;;;;;28.47;20.47;;;;;;;0.48;74.40;97306.34;5099736;28;20204;-72
2021/12/22 03:43:09;;;;;;;31.03;21.23;;;;;;;0.47;74.31;97315.91;5096267;28;20213;-72
2021/12/22 03:45:35;;;;;;;28.00;20.93;;;;;;;0.47;74.50;97315.06;5085217;28;20215;-71
2021/12/22 03:48:01;;;;;;;30.10;20.90;;;;;;;0.43;73.92;97316.94;5078957;28;20231;-72
2021/12/22 03:50:28;;;;;;;31.17;21.00;;;;;;;0.46;74.44;97315.97;5100418;28;20269;-71
2021/12/22 03:52:54;;;;;;;30.30;21.43;;;;;;;0.32;73.98;97311.34;5087311;28;20212;-72
2021/12/22 03:55:21;;;;;;;30.07;21.03;;;;;;;0.37;74.60;97308.56;5077983;28;20224;-71
2021/12/22 03:57:50;;;;;;;31.10;21.53;;;;;;;0.43;75.58;97306.53;5088724;28;20214;-71
2021/12/22 04:00:17;;;;;;;30.97;21.07;;;;;;;0.42;74.74;97306.63;5077472;28;20216;-71
2021/12/22 04:02:43;;;;;;;29.10;21.03;;;;;;;0.37;73.98;97303.34;5077584;28;20216;-70
2021/12/22 04:05:10;;;;;;;30.67;21.20;;;;;;;0.37;74.34;97303.34;5094620;28;20209;-71
2021/12/22 04:07:37;;;;;;;31.00;21.33;;;;;;;0.34;74.12;97304.34;5081871;28;20199;-72
2021/12/22 04:10:18;;;;;;;32.00;21.83;;;;;;;0.38;74.04;97300.69;5086050;28;20223;-70
2021/12/22 04:12:45;;;;;;;30.97;21.57;;;;;;;0.28;73.73;97296.78;5079695;28;20276;-71
2021/12/22 04:15:13;;;;;;;29.03;20.57;;;;;;;0.27;74.32;97299.44;5084973;28;20203;-71
2021/12/22 04:17:39;;;;;;;27.77;20.17;;;;;;;0.29;74.55;97295.00;5077052;28;20217;-70
2021/12/22 04:20:06;;;;;;;29.33;20.67;;;;;;;0.20;73.58;97298.00;5077173;28;20634;-71
2021/12/22 04:22:33;;;;;;;30.63;21.50;;;;;;;0.20;74.59;97292.81;5090933;28;20633;-72
2021/12/22 04:24:59;;;;;;;30.30;20.37;;;;;;;0.24;73.93;97291.78;5077642;28;20232;-70
2021/12/22 04:27:26;;;;;;;30.33;20.90;;;;;;;0.19;74.41;97288.50;5076988;28;20203;-72
2021/12/22 04:29:52;;;;;;;27.97;20.23;;;;;;;0.23;75.97;97285.72;5078340;28;20231;-71
2021/12/22 04:32:20;;;;;;;31.80;21.57;;;;;;;0.13;74.63;97292.22;5079435;28;20218;-72
2021/12/22 04:34:46;;;;;;;29.50;21.03;;;;;;;0.13;74.47;97288.78;5076724;28;20211;-72
2021/12/22 04:37:13;;;;;;;28.67;21.23;;;;;;;0.19;75.25;97291.13;5076883;28;20533;-72
2021/12/22 04:39:39;;;;;;;31.50;22.10;;;;;;;0.20;74.68;97290.22;5076788;28;20203;-72
2021/12/22 04:42:06;;;;;;;27.77;20.00;;;;;;;0.22;74.21;97296.19;5076919;28;20549;-73
2021/12/22 04:44:33;;;;;;;29.23;21.30;;;;;;;0.27;74.62;97296.84;5076605;28;20237;-71
2021/12/22 04:46:59;;;;;;;28.83;19.53;;;;;;;0.28;74.24;97303.75;5076598;28;20199;-72
2021/12/22 04:49:27;;;;;;;30.00;21.00;;;;;;;0.31;76.02;97309.66;5076110;28;20245;-71
2021/12/22 04:51:56;;;;;;;28.63;20.40;;;;;;;0.27;74.29;97312.44;5092948;28;20541;-71
2021/12/22 04:54:33;;;;;;;28.10;20.00;;;;;;;0.24;75.00;97317.78;5076405;28;20294;-71
2021/12/22 04:56:59;;;;;;;28.90;20.60;;;;;;;0.26;75.19;97315.97;5076584;28;20207;-71
2021/12/22 04:59:26;;;;;;;29.27;20.73;;;;;;;0.30;75.30;97315.78;5076427;28;20214;-72
2021/12/22 05:01:53;;;;;;;30.33;20.93;;;;;;;0.33;75.22;97320.00;5076967;28;20626;-71
2021/12/22 05:04:19;;;;;;;27.40;20.43;;;;;;;0.31;75.13;97319.22;5078203;28;20209;-72
2021/12/22 05:06:47;;;;;;;32.40;21.73;;;;;;;0.26;74.56;97311.59;5088288;28;20650;-72
2021/12/22 05:09:13;;;;;;;29.70;21.70;;;;;;;0.15;74.30;97310.34;5076670;28;20318;-71
2021/12/22 05:11:40;;;;;;;30.37;20.50;;;;;;;0.22;74.37;97306.59;5076041;28;20654;-72
2021/12/22 05:14:08;;;;;;;28.43;20.07;;;;;;;0.14;74.83;97301.72;5076312;28;20208;-71
2021/12/22 05:16:44;;;;;;;31.53;21.57;;;;;;;0.12;74.37;97297.47;5075944;28;20635;-71
2021/12/22 05:19:14;;;;;;;29.03;21.13;;;;;;;0.16;75.18;97305.09;5076352;28;20210;-71
2021/12/22 05:21:42;;;;;;;29.73;21.03;;;;;;;0.08;74.61;97301.13;5091361;28;20288;-71
2021/12/22 05:24:10;;;;;;;30.40;21.13;;;;;;;0.10;75.24;97309.72;5078304;28;20663;-71
2021/12/22 05:26:36;;;;;;;32.13;22.03;;;;;;;0.11;76.21;97329.63;5076184;28;20203;-71
2021/12/22 05:29:03;;;;;;;30.80;21.53;;;;;;;0.08;75.45;97327.13;5075754;28;20241;-70
2021/12/22 05:31:29;;;;;;;34.33;22.80;;;;;;;-0.10;75.23;97313.09;5075992;28;20207;-72
2021/12/22 05:33:57;;;;;;;30.40;22.00;;;;;;;-0.05;76.48;97300.78;5080454;28;20300;-72
2021/12/22 05:36:23;;;;;;;27.87;20.57;;;;;;;0.11;76.21;97304.44;5084146;28;20584;-71
2021/12/22 05:38:50;;;;;;;32.13;21.03;;;;;;;0.17;76.05;97301.59;5077265;28;20210;-72
2021/12/22 05:41:18;;;;;;;31.53;21.77;;;;;;;0.14;76.82;97295.69;5075802;28;20207;-71
2021/12/22 05:43:44;;;;;;;30.73;21.60;;;;;;;0.13;75.92;97299.19;5076223;28;20209;-71
2021/12/22 05:46:11;;;;;;;29.13;20.73;;;;;;;0.17;76.11;97312.00;5075847;28;20213;-71
2021/12/22 05:48:37;;;;;;;32.63;22.13;;;;;;;0.20;75.66;97313.63;5081263;28;20275;-71
2021/12/22 05:51:04;;;;;;;31.47;22.40;;;;;;;0.27;76.80;97315.06;5103200;28;20652;-70
2021/12/22 05:53:30;;;;;;;29.87;21.67;;;;;;;0.07;75.48;97307.25;5080210;28;20536;-71
2021/12/22 05:55:58;;;;;;;32.80;22.73;;;;;;;-0.04;75.83;97316.31;5082948;28;20215;-71
2021/12/22 05:58:27;;;;;;;27.67;20.57;;;;;;;-0.01;76.03;97310.16;5075805;28;20218;-72
2021/12/22 06:00:53;;;;;;;33.53;21.70;;;;;;;-0.04;76.51;97305.91;5075174;28;20648;-72
2021/12/22 06:03:20;;;;;;;34.87;22.07;;;;;;;-0.08;75.29;97300.91;5077932;28;20215;-71
2021/12/22 06:05:46;;;;;;;30.23;21.37;;;;;;;-0.08;75.55;97301.75;5094616;28;20213;-71
2021/12/22 06:08:13;;;;;;;29.43;20.50;;;;;;;-0.03;76.35;97310.19;5076402;28;20218;-70
2021/12/22 06:10:39;;;;;;;30.30;22.10;;;;;;;0.02;76.31;97306.56;5082558;28;20217;-72
2021/12/22 06:13:07;;;;;;;31.87;22.37;;;;;;;-0.08;75.79;97301.75;5082710;28;20228;-72
2021/12/22 06:15:37;;;;;;;33.47;22.37;;;;;;;0.04;76.24;97299.56;5085146;28;20207;-72
2021/12/22 06:18:04;;;;;;;29.90;21.80;;;;;;;0.03;76.01;97296.13;5079757;28;20207;-72
2021/12/22 06:20:32;;;;;;;30.30;20.60;;;;;;;0.06;75.70;97301.19;5078400;28;20206;-70
2021/12/22 06:22:58;;;;;;;31.90;22.10;;;;;;;0.04;75.48;97317.78;5089557;28;20210;-71
2021/12/22 06:25:26;;;;;;;33.07;22.63;;;;;;;-0.01;76.00;97320.56;5080261;28;20560;-72
2021/12/22 06:27:53;;;;;;;32.00;22.57;;;;;;;0.06;75.81;97323.75;5093596;28;20218;-71
2021/12/22 06:30:20;;;;;;;29.57;21.17;;;;;;;0.05;76.19;97322.03;5082305;28;20666;-71
2021/12/22 06:32:48;;;;;;;30.10;22.67;;;;;;;0.07;77.06;97335.84;5088452;28;20215;-72
2021/12/22 06:35:15;;;;;;;30.93;21.60;;;;;;;0.13;76.34;97336.44;5081571;28;20212;-70
2021/12/22 06:37:42;;;;;;;32.83;22.57;;;;;;;0.20;75.78;97322.28;5075834;28;20294;-72
2021/12/22 06:40:09;;;;;;;33.77;23.70;;;;;;;0.12;76.05;97329.53;5075587;28;20211;-72
2021/12/22 06:42:38;;;;;;;31.67;21.97;;;;;;;0.10;75.71;97318.38;5075443;28;20206;-71
2021/12/22 06:45:05;;;;;;;29.87;22.83;;;;;;;0.06;75.81;97318.53;5075843;28;20542;-72
2021/12/22 06:47:32;;;;;;;29.10;20.87;;;;;;;0.05;75.18;97309.03;5075256;28;20212;-71
2021/12/22 06:49:59;;;;;;;30.83;22.20;;;;;;;0.09;75.97;97308.84;5074959;28;20242;-70
2021/12/22 06:52:26;;;;;;;29.63;21.77;;;;;;;0.13;76.18;97314.78;5093543;28;20204;-71
2021/12/22 06:54:52;;;;;;;29.07;20.53;;;;;;;0.09;75.75;97314.06;5075648;28;20206;-70
2021/12/22 06:57:20;;;;;;;33.43;22.60;;;;;;;0.03;76.78;97319.53;5087935;28;20217;-71
2021/12/22 06:59:46;;;;;;;29.63;22.17;;;;;;;0.06;77.38;97318.53;5081577;28;20215;-69
2021/12/22 07:02:13;;;;;;;32.10;21.53;;;;;;;0.06;77.07;97321.16;5080379;28;20210;-71
2021/12/22 07:04:39;;;;;;;31.70;22.30;;;;;;;0.26;76.97;97321.16;5089958;28;20198;-71
2021/12/22 07:07:07;;;;;;;31.70;21.80;;;;;;;0.40;77.18;97318.81;5082426;28;20218;-71
2021/12/22 07:09:33;;;;;;;33.03;22.63;;;;;;;0.37;76.66;97324.16;5085048;28;20226;-70
2021/12/22 07:12:00;;;;;;;31.87;23.00;;;;;;;0.23;77.28;97329.09;5085233;28;20213;-72
2021/12/22 07:14:26;;;;;;;34.63;23.10;;;;;;;0.16;77.60;97325.91;5088163;28;20215;-72
2021/12/22 07:16:53;;;;;;;34.80;23.53;;;;;;;0.17;76.61;97325.00;5080867;28;20298;-71
2021/12/22 07:19:19;;;;;;;33.23;23.40;;;;;;;0.18;77.79;97329.28;5077279;28;20199;-71
2021/12/22 07:21:48;;;;;;;32.23;22.07;;;;;;;0.12;78.00;97336.47;5086517;28;20207;-72
2021/12/22 07:24:16;;;;;;;30.10;22.07;;;;;;;0.25;76.85;97337.69;5077833;28;20374;-71
2021/12/22 07:26:43;;;;;;;32.67;22.47;;;;;;;0.14;77.02;97342.50;5077291;28;20283;-71
2021/12/22 07:29:10;;;;;;;32.47;23.23;;;;;;;0.29;76.30;97334.03;5086090;28;20298;-72
2021/12/22 07:31:36;;;;;;;30.43;22.13;;;;;;;0.24;76.32;97333.41;5088065;28;20275;-72
2021/12/22 07:34:12;;;;;;;31.47;23.07;;;;;;;0.17;76.80;97339.75;5080778;28;20589;-72
2021/12/22 07:36:43;;;;;;;32.87;22.33;;;;;;;0.05;76.66;97343.69;5079611;28;20588;-72
2021/12/22 07:39:09;;;;;;;30.30;22.00;;;;;;;0.03;77.11;97342.06;5080592;28;20200;-72
2021/12/22 07:41:37;;;;;;;33.00;22.13;;;;;;;0.10;77.14;97348.72;5081260;28;20219;-72
2021/12/22 07:44:04;;;;;;;32.10;21.83;;;;;;;0.19;75.58;97353.53;5093249;28;20622;-71
2021/12/22 07:46:31;;;;;;;30.83;22.70;;;;;;;0.10;77.26;97359.13;5079553;28;20213;-72
2021/12/22 07:48:57;;;;;;;32.73;23.13;;;;;;;0.04;77.66;97356.78;5088575;28;20237;-72
2021/12/22 07:51:23;;;;;;;34.37;21.57;;;;;;;0.10;77.67;97359.97;5096425;28;20218;-70
2021/12/22 07:53:51;;;;;;;32.53;22.33;;;;;;;0.16;77.34;97358.84;5079712;28;20214;-71
2021/12/22 07:56:18;;;;;;;30.97;21.30;;;;;;;0.23;74.88;97357.69;5084121;28;20221;-72
2021/12/22 07:58:46;;;;;;;31.17;21.43;;;;;;;0.27;76.15;97359.28;5085222;28;20210;-73
2021/12/22 08:01:12;;;;;;;35.80;22.83;;;;;;;0.13;76.92;97356.38;5084975;28;20225;-71
2021/12/22 08:03:39;;;;;;;31.73;22.97;;;;;;;0.13;76.67;97356.38;5088725;28;20202;-72
2021/12/22 08:06:05;;;;;;;33.00;22.73;;;;;;;0.14;76.39;97358.09;5095509;28;20202;-67
2021/12/22 08:08:32;;;;;;;31.13;22.17;;;;;;;0.21;77.01;97359.53;5085115;28;20211;-71
2021/12/22 08:10:58;;;;;;;33.97;23.27;;;;;;;0.18;77.59;97359.66;5078002;28;20253;-71
2021/12/22 08:13:25;;;;;;;32.87;22.87;;;;;;;0.11;76.73;97363.41;5078421;28;20248;-72
2021/12/22 08:15:52;;;;;;;31.90;22.53;;;;;;;0.34;76.98;97365.91;5078009;28;20213;-71
2021/12/22 08:18:20;;;;;;;31.03;22.93;;;;;;;0.40;76.26;97357.84;5077689;28;20203;-71
2021/12/22 08:20:47;;;;;;;31.20;21.33;;;;;;;0.48;76.31;97358.38;5080077;28;20640;-71
2021/12/22 08:23:13;;;;;;;33.03;22.20;;;;;;;0.20;75.42;97373.44;5088181;28;20206;-71
2021/12/22 08:25:40;;;;;;;32.13;22.90;;;;;;;0.21;76.69;97369.94;5081811;28;20211;-70
2021/12/22 08:28:06;;;;;;;31.83;22.00;;;;;;;0.38;75.41;97383.94;5077993;28;20212;-71
2021/12/22 08:30:33;;;;;;;32.70;22.07;;;;;;;0.52;74.54;97380.78;5079337;28;20538;-71
2021/12/22 08:33:05;;;;;;;31.67;21.73;;;;;;;0.33;75.42;97385.88;5087184;28;20221;-71
2021/12/22 08:38:50;;;;;;;31.07;21.73;;;;;;;0.23;76.33;97384.56;5076797;28;20204;-72
2021/12/22 08:41:02;;;;;;;33.93;21.77;;;;;;;0.03;76.70;97378.47;5083431;28;20220;-71
2021/12/22 08:43:28;;;;;;;35.63;22.03;;;;;;;0.10;76.47;97387.72;5076933;28;20206;-70
2021/12/22 08:45:55;;;;;;;33.70;22.57;;;;;;;0.12;76.70;97380.69;5085598;28;20223;-71
2021/12/22 08:48:23;;;;;;;32.33;21.43;;;;;;;0.12;76.98;97380.69;5084475;28;20212;-71
2021/12/22 08:50:49;;;;;;;37.70;22.83;;;;;;;0.09;77.16;97380.81;5098852;28;20258;-71
2021/12/22 08:53:16;;;;;;;32.13;22.43;;;;;;;0.14;76.67;97384.09;5082658;28;20294;-71
2021/12/22 08:55:42;;;;;;;33.37;22.90;;;;;;;0.06;76.20;97386.16;5077539;28;20208;-72
2021/12/22 08:58:09;;;;;;;34.70;23.27;;;;;;;0.09;77.08;97391.22;5087110;28;20209;-71
2021/12/22 09:00:38;;;;;;;32.80;23.00;;;;;;;0.17;76.79;97389.16;5077695;28;20211;-71
2021/12/22 09:03:04;;;;;;;30.57;21.43;;;;;;;0.18;76.02;97390.88;5077066;28;20212;-72
2021/12/22 09:05:32;;;;;;;32.27;23.07;;;;;;;0.15;76.29;97398.78;5087731;28;20652;-72
2021/12/22 09:07:58;;;;;;;33.87;23.53;;;;;;;0.00;76.50;97398.47;5078807;28;20268;-70
2021/12/22 09:10:25;;;;;;;31.90;22.67;;;;;;;0.03;76.75;97399.28;5076940;28;20227;-71
2021/12/22 09:12:51;;;;;;;33.80;23.27;;;;;;;0.06;77.50;97404.34;5076900;28;20634;-72
2021/12/22 09:15:19;;;;;;;34.03;22.43;;;;;;;0.25;77.37;97398.34;5076463;28;20199;-71
2021/12/22 09:17:46;;;;;;;32.53;21.53;;;;;;;0.42;76.38;97402.88;5076253;28;20206;-72
2021/12/22 09:20:12;;;;;;;31.63;22.17;;;;;;;0.54;75.38;97404.09;5075860;28;20527;-73
2021/12/22 09:22:40;;;;;;;32.40;22.77;;;;;;;0.51;75.30;97407.69;5090081;28;20206;-70
2021/12/22 09:25:08;;;;;;;30.93;22.00;;;;;;;0.55;75.43;97411.00;5076145;28;20218;-72
2021/12/22 09:27:34;;;;;;;35.23;22.93;;;;;;;0.49;75.35;97399.13;5075582;28;20207;-72
2021/12/22 09:30:01;;;;;;;32.80;22.83;;;;;;;0.40;76.26;97402.94;5076305;28;20249;-72
2021/12/22 09:32:27;;;;;;;34.97;22.33;;;;;;;0.40;75.59;97402.06;5076278;28;20212;-71
2021/12/22 09:34:54;;;;;;;31.00;22.30;;;;;;;0.30;75.30;97401.63;5075846;28;20217;-69
2021/12/22 09:37:20;;;;;;;30.97;21.33;;;;;;;0.49;75.77;97396.50;5076149;28;20206;-70
2021/12/22 09:39:49;;;;;;;32.00;22.57;;;;;;;0.40;76.29;97400.31;5081626;28;20207;-72
2021/12/22 09:42:17;;;;;;;32.40;22.43;;;;;;;0.61;75.50;97390.78;5076538;28;20204;-73
2021/12/22 09:44:45;;;;;;;30.43;22.37;;;;;;;0.41;74.42;97398.56;5076352;28;20204;-71
2021/12/22 09:47:12;;;;;;;33.60;22.33;;;;;;;0.65;74.01;97400.16;5080540;28;20294;-72
2021/12/22 09:50:05;;;;;;;31.30;22.33;;;;;;;0.76;72.46;97400.56;5095808;28;20230;-71
2021/12/22 09:52:32;;;;;;;30.20;21.33;;;;;;;0.78;73.97;97396.13;5094585;28;20474;-71
2021/12/22 09:55:01;;;;;;;31.57;20.77;;;;;;;0.85;73.14;97389.72;5078337;28;20219;-71
2021/12/22 09:57:28;;;;;;;34.17;21.77;;;;;;;0.82;73.71;97399.44;5101576;28;20207;-72
2021/12/22 09:59:56;;;;;;;29.83;21.30;;;;;;;0.75;73.68;97398.84;5092007;28;20203;-71
2021/12/22 10:02:28;;;;;;;29.20;20.60;;;;;;;0.85;73.88;97389.72;5090890;28;20208;-72
2021/12/22 10:04:55;;;;;;;31.07;20.97;;;;;;;0.93;72.44;97387.66;5092381;28;20194;-71
2021/12/22 10:07:27;;;;;;;33.00;21.60;;;;;;;0.93;72.07;97385.06;5092329;28;20306;-71
2021/12/22 10:09:55;;;;;;;34.70;22.87;;;;;;;0.84;72.87;97388.06;5093688;28;20196;-71
2021/12/22 10:12:24;;;;;;;36.23;22.30;;;;;;;0.99;73.16;97383.97;5076494;28;20220;-72
2021/12/22 10:14:54;;;;;;;31.73;21.63;;;;;;;0.87;72.60;97387.94;5075676;28;20207;-72
2021/12/22 10:17:28;;;;;;;38.80;20.77;;;;;;;0.92;72.48;97390.34;5080080;28;20237;-70
2021/12/22 10:19:57;;;;;;;30.17;20.67;;;;;;;0.90;73.21;97392.16;5087069;28;20521;-71
2021/12/22 10:22:29;;;;;;;31.43;21.27;;;;;;;1.02;72.77;97380.38;5088595;28;20275;-71
2021/12/22 10:25:03;;;;;;;31.87;21.27;;;;;;;1.03;73.11;97377.66;5075752;28;20202;-71
2021/12/22 10:27:31;;;;;;;30.13;20.40;;;;;;;0.93;70.83;97377.22;5089713;28;20623;-70
2021/12/22 10:29:58;;;;;;;32.80;21.17;;;;;;;0.85;72.65;97374.13;5076372;28;20208;-71
2021/12/22 10:32:24;;;;;;;30.77;21.60;;;;;;;1.05;71.34;97373.25;5074677;28;20632;-71
2021/12/22 10:34:59;;;;;;;30.17;20.30;;;;;;;0.57;71.78;97367.56;5074818;28;20635;-71
2021/12/22 10:37:33;;;;;;;30.63;20.33;;;;;;;0.51;73.63;97360.84;5093467;28;20220;-70
2021/12/22 10:39:59;;;;;;;27.27;19.23;;;;;;;0.58;72.81;97359.69;5094884;28;20217;-71
2021/12/22 10:42:41;;;;;;;27.83;19.20;;;;;;;0.56;72.99;97358.06;5090243;28;20535;-68
2021/12/22 10:45:15;;;;;;;29.07;20.30;;;;;;;0.52;72.88;97354.75;5087552;28;20194;-71
2021/12/22 10:50:30;;;;;;;30.90;20.97;;;;;;;0.38;73.21;97346.66;5086502;28;20587;-70
2021/12/22 10:52:58;;;;;;;31.07;20.47;;;;;;;0.38;73.00;97347.53;5090412;28;20229;-70
2021/12/22 10:55:25;;;;;;;28.33;19.70;;;;;;;0.33;72.82;97344.25;5087710;28;20219;-72
2021/12/22 10:57:52;;;;;;;28.43;20.60;;;;;;;0.35;73.99;97345.06;5079018;28;20208;-70
2021/12/22 11:00:21;;;;;;;30.27;20.83;;;;;;;0.53;73.30;97340.84;5087903;28;20641;-70
2021/12/22 11:03:01;;;;;;;30.43;20.93;;;;;;;0.45;72.72;97333.34;5081683;28;20290;-72
2021/12/22 11:05:29;;;;;;;30.03;20.77;;;;;;;0.61;73.50;97328.31;5091242;28;20193;-71
2021/12/22 11:07:56;;;;;;;28.87;20.17;;;;;;;0.50;73.65;97320.13;5082174;28;20294;-71
2021/12/22 11:10:24;;;;;;;29.17;19.87;;;;;;;0.65;73.10;97309.06;5085079;28;20230;-70
2021/12/22 11:13:02;;;;;;;30.30;20.53;;;;;;;0.80;72.23;97300.59;5083257;28;20238;-71
2021/12/22 11:15:29;;;;;;;28.43;20.60;;;;;;;0.63;72.62;97321.31;5088103;28;20202;-72
2021/12/22 11:17:55;;;;;;;30.87;21.37;;;;;;;0.52;71.96;97312.25;5095404;28;20209;-71
2021/12/22 11:20:23;;;;;;;30.17;20.43;;;;;;;0.38;72.93;97310.25;5093722;28;20213;-70
2021/12/22 11:22:54;;;;;;;31.57;21.27;;;;;;;0.44;74.02;97305.63;5087485;28;20198;-72
2021/12/22 11:25:21;;;;;;;26.67;19.47;;;;;;;0.53;74.46;97304.41;5088200;28;20294;-71
2021/12/22 11:27:48;;;;;;;30.20;20.77;;;;;;;0.65;74.06;97296.03;5084671;28;20206;-70
2021/12/22 11:30:16;;;;;;;29.93;19.67;;;;;;;0.72;71.15;97300.06;5084822;28;20206;-71
2021/12/22 11:32:43;;;;;;;28.93;20.03;;;;;;;0.62;72.42;97298.78;5097684;28;20219;-71
2021/12/22 11:35:11;;;;;;;27.87;19.70;;;;;;;0.67;73.05;97291.63;5090157;28;20206;-73
2021/12/22 11:37:38;;;;;;;29.77;20.57;;;;;;;0.70;72.23;97295.84;5110200;28;20527;-72
2021/12/22 11:40:08;;;;;;;29.90;20.13;;;;;;;0.89;70.89;97294.97;5089866;28;20219;-72